KMFV/MFV METAR and TAF weather

Enter ICAO airport designator
Station Type Date Time Source
KMFV METAR 2019/10/15 03:35 UTC NOAA

KMFV 150335Z AUTO 19004KT 10SM CLR 13/12 A3007 RMK AO2 T01290120


Station Type Date Time Source
KMFV Decoded METAR 2019/10/15 03:35 UTC NOAA

Melfa / Accomack Airport, VA, United States (KMFV) 37-39N 075-46W
Oct 14, 2019 - 11:35 PM EDT / 2019.10.15 0335 UTC
Wind: from the S (190 degrees) at 5 MPH (4 KT):0
Visibility: 10 mile(s):0
Sky conditions: clear
Temperature: 55.2 F (12.9 C)
Dew Point: 53.6 F (12.0 C)
Relative Humidity: 94%
Pressure (altimeter): 30.07 in. Hg (1018 hPa)
ob: KMFV 150335Z AUTO 19004KT 10SM CLR 13/12 A3007 RMK AO2 T01290120
cycle: 3

Station Type Date Time Source
KMFV TAF UTC NOAA

Error!

Example: see airport list